sensor_id;sensor_type;location;lat;lon;timestamp;P1;durP1;ratioP1;P2;durP2;ratioP2
26052;SDS011;13826;51.186;4.450;2022-08-25T00:00:21;9.02;;;4.40;;
26052;SDS011;13826;51.186;4.450;2022-08-25T00:02:47;5.15;;;4.10;;
26052;SDS011;13826;51.186;4.450;2022-08-25T00:05:13;6.05;;;4.60;;
26052;SDS011;13826;51.186;4.450;2022-08-25T00:07:39;5.32;;;4.72;;
26052;SDS011;13826;51.186;4.450;2022-08-25T00:10:05;8.10;;;5.00;;
26052;SDS011;13826;51.186;4.450;2022-08-25T00:12:31;8.65;;;4.38;;
26052;SDS011;13826;51.186;4.450;2022-08-25T00:14:57;8.30;;;5.05;;
26052;SDS011;13826;51.186;4.450;2022-08-25T00:17:23;9.60;;;5.80;;
26052;SDS011;13826;51.186;4.450;2022-08-25T00:19:49;7.38;;;4.45;;
26052;SDS011;13826;51.186;4.450;2022-08-25T00:22:15;6.30;;;4.88;;
26052;SDS011;13826;51.186;4.450;2022-08-25T00:24:40;7.82;;;4.78;;
26052;SDS011;13826;51.186;4.450;2022-08-25T00:27:06;7.28;;;5.45;;
26052;SDS011;13826;51.186;4.450;2022-08-25T00:29:32;7.18;;;5.20;;
26052;SDS011;13826;51.186;4.450;2022-08-25T00:32:02;7.22;;;4.70;;
26052;SDS011;13826;51.186;4.450;2022-08-25T00:34:30;8.77;;;5.10;;
26052;SDS011;13826;51.186;4.450;2022-08-25T00:36:59;9.88;;;5.20;;
26052;SDS011;13826;51.186;4.450;2022-08-25T00:39:25;9.70;;;5.30;;
26052;SDS011;13826;51.186;4.450;2022-08-25T00:41:53;9.40;;;5.68;;
26052;SDS011;13826;51.186;4.450;2022-08-25T00:44:20;6.90;;;4.80;;
26052;SDS011;13826;51.186;4.450;2022-08-25T00:46:48;9.45;;;5.65;;
26052;SDS011;13826;51.186;4.450;2022-08-25T00:49:20;9.15;;;5.93;;
26052;SDS011;13826;51.186;4.450;2022-08-25T00:51:55;8.57;;;5.82;;
26052;SDS011;13826;51.186;4.450;2022-08-25T00:54:36;7.22;;;5.63;;
26052;SDS011;13826;51.186;4.450;2022-08-25T00:57:08;9.77;;;5.70;;
26052;SDS011;13826;51.186;4.450;2022-08-25T00:59:36;11.20;;;6.53;;
26052;SDS011;13826;51.186;4.450;2022-08-25T01:02:04;10.95;;;5.72;;
26052;SDS011;13826;51.186;4.450;2022-08-25T01:04:31;12.13;;;6.30;;
26052;SDS011;13826;51.186;4.450;2022-08-25T01:06:57;9.88;;;7.10;;
26052;SDS011;13826;51.186;4.450;2022-08-25T01:09:24;8.45;;;6.03;;
26052;SDS011;13826;51.186;4.450;2022-08-25T01:11:50;7.72;;;6.47;;
26052;SDS011;13826;51.186;4.450;2022-08-25T01:14:18;9.18;;;6.40;;
26052;SDS011;13826;51.186;4.450;2022-08-25T01:16:45;7.55;;;6.35;;
26052;SDS011;13826;51.186;4.450;2022-08-25T01:19:13;7.00;;;6.07;;
26052;SDS011;13826;51.186;4.450;2022-08-25T01:21:41;8.38;;;6.65;;
26052;SDS011;13826;51.186;4.450;2022-08-25T01:24:10;7.68;;;6.90;;
26052;SDS011;13826;51.186;4.450;2022-08-25T01:26:43;9.43;;;7.10;;
26052;SDS011;13826;51.186;4.450;2022-08-25T01:29:08;14.75;;;7.55;;
26052;SDS011;13826;51.186;4.450;2022-08-25T01:31:51;13.88;;;6.95;;
26052;SDS011;13826;51.186;4.450;2022-08-25T01:34:21;7.75;;;6.68;;
26052;SDS011;13826;51.186;4.450;2022-08-25T01:36:49;15.73;;;6.82;;
26052;SDS011;13826;51.186;4.450;2022-08-25T01:39:15;10.48;;;7.07;;
26052;SDS011;13826;51.186;4.450;2022-08-25T01:44:22;9.70;;;6.68;;
26052;SDS011;13826;51.186;4.450;2022-08-25T01:46:48;10.07;;;6.57;;
26052;SDS011;13826;51.186;4.450;2022-08-25T01:49:16;13.93;;;7.68;;
26052;SDS011;13826;51.186;4.450;2022-08-25T01:51:43;10.05;;;6.78;;
26052;SDS011;13826;51.186;4.450;2022-08-25T01:54:15;10.90;;;7.25;;
26052;SDS011;13826;51.186;4.450;2022-08-25T01:56:41;9.35;;;7.35;;
26052;SDS011;13826;51.186;4.450;2022-08-25T01:59:06;8.07;;;6.97;;
26052;SDS011;13826;51.186;4.450;2022-08-25T02:01:32;9.80;;;7.72;;
26052;SDS011;13826;51.186;4.450;2022-08-25T02:03:59;10.23;;;7.35;;
26052;SDS011;13826;51.186;4.450;2022-08-25T02:06:26;8.70;;;7.25;;
26052;SDS011;13826;51.186;4.450;2022-08-25T02:08:57;9.15;;;7.25;;
26052;SDS011;13826;51.186;4.450;2022-08-25T02:11:25;9.85;;;7.20;;
26052;SDS011;13826;51.186;4.450;2022-08-25T02:13:51;8.93;;;7.10;;
26052;SDS011;13826;51.186;4.450;2022-08-25T02:16:19;8.55;;;6.65;;
26052;SDS011;13826;51.186;4.450;2022-08-25T02:18:49;11.75;;;7.72;;
26052;SDS011;13826;51.186;4.450;2022-08-25T02:21:15;8.73;;;7.43;;
26052;SDS011;13826;51.186;4.450;2022-08-25T02:23:41;12.48;;;8.10;;
26052;SDS011;13826;51.186;4.450;2022-08-25T02:26:07;11.77;;;9.02;;
26052;SDS011;13826;51.186;4.450;2022-08-25T02:28:33;10.93;;;7.93;;
26052;SDS011;13826;51.186;4.450;2022-08-25T02:31:00;12.18;;;8.13;;
26052;SDS011;13826;51.186;4.450;2022-08-25T02:33:25;11.20;;;7.60;;
26052;SDS011;13826;51.186;4.450;2022-08-25T02:35:51;9.55;;;8.55;;
26052;SDS011;13826;51.186;4.450;2022-08-25T02:38:17;14.63;;;9.80;;
26052;SDS011;13826;51.186;4.450;2022-08-25T02:40:42;12.93;;;9.00;;
26052;SDS011;13826;51.186;4.450;2022-08-25T02:43:08;10.57;;;7.70;;
26052;SDS011;13826;51.186;4.450;2022-08-25T02:45:34;16.33;;;9.38;;
26052;SDS011;13826;51.186;4.450;2022-08-25T02:48:00;12.63;;;9.27;;
26052;SDS011;13826;51.186;4.450;2022-08-25T02:50:27;17.63;;;9.88;;
26052;SDS011;13826;51.186;4.450;2022-08-25T02:52:53;12.05;;;9.82;;
26052;SDS011;13826;51.186;4.450;2022-08-25T02:55:19;13.70;;;10.20;;
26052;SDS011;13826;51.186;4.450;2022-08-25T02:57:44;12.70;;;9.65;;
26052;SDS011;13826;51.186;4.450;2022-08-25T03:00:12;13.05;;;9.68;;
26052;SDS011;13826;51.186;4.450;2022-08-25T03:02:39;15.27;;;9.40;;
26052;SDS011;13826;51.186;4.450;2022-08-25T03:05:05;12.27;;;8.63;;
26052;SDS011;13826;51.186;4.450;2022-08-25T03:07:33;13.77;;;10.48;;
26052;SDS011;13826;51.186;4.450;2022-08-25T03:10:02;15.43;;;11.05;;
26052;SDS011;13826;51.186;4.450;2022-08-25T03:12:30;13.48;;;9.23;;
26052;SDS011;13826;51.186;4.450;2022-08-25T03:14:55;16.65;;;10.15;;
26052;SDS011;13826;51.186;4.450;2022-08-25T03:17:21;11.35;;;10.15;;
26052;SDS011;13826;51.186;4.450;2022-08-25T03:19:47;12.07;;;10.05;;
26052;SDS011;13826;51.186;4.450;2022-08-25T03:22:12;16.38;;;10.02;;
26052;SDS011;13826;51.186;4.450;2022-08-25T03:24:38;15.40;;;10.50;;
26052;SDS011;13826;51.186;4.450;2022-08-25T03:27:04;16.73;;;9.73;;
26052;SDS011;13826;51.186;4.450;2022-08-25T03:29:31;16.02;;;10.13;;
26052;SDS011;13826;51.186;4.450;2022-08-25T03:31:57;11.32;;;9.77;;
26052;SDS011;13826;51.186;4.450;2022-08-25T03:34:24;12.57;;;10.45;;
26052;SDS011;13826;51.186;4.450;2022-08-25T03:36:55;11.88;;;10.50;;
26052;SDS011;13826;51.186;4.450;2022-08-25T03:39:22;17.50;;;10.35;;
26052;SDS011;13826;51.186;4.450;2022-08-25T03:41:50;13.18;;;10.52;;
26052;SDS011;13826;51.186;4.450;2022-08-25T03:44:17;17.35;;;10.35;;
26052;SDS011;13826;51.186;4.450;2022-08-25T03:46:45;19.50;;;10.35;;
26052;SDS011;13826;51.186;4.450;2022-08-25T03:49:14;10.73;;;9.35;;
26052;SDS011;13826;51.186;4.450;2022-08-25T03:51:43;15.43;;;9.68;;
26052;SDS011;13826;51.186;4.450;2022-08-25T03:54:12;14.20;;;9.90;;
26052;SDS011;13826;51.186;4.450;2022-08-25T03:56:40;13.65;;;9.40;;
26052;SDS011;13826;51.186;4.450;2022-08-25T03:59:06;12.20;;;8.98;;
26052;SDS011;13826;51.186;4.450;2022-08-25T04:01:37;11.85;;;8.18;;
26052;SDS011;13826;51.186;4.450;2022-08-25T04:04:04;14.10;;;9.02;;
26052;SDS011;13826;51.186;4.450;2022-08-25T04:06:30;17.83;;;8.50;;
26052;SDS011;13826;51.186;4.450;2022-08-25T04:08:56;14.70;;;8.25;;
26052;SDS011;13826;51.186;4.450;2022-08-25T04:11:22;10.90;;;7.55;;
26052;SDS011;13826;51.186;4.450;2022-08-25T04:13:50;12.43;;;8.70;;
26052;SDS011;13826;51.186;4.450;2022-08-25T04:16:21;12.27;;;7.50;;
26052;SDS011;13826;51.186;4.450;2022-08-25T04:18:48;21.42;;;8.15;;
26052;SDS011;13826;51.186;4.450;2022-08-25T04:21:15;11.50;;;6.90;;
26052;SDS011;13826;51.186;4.450;2022-08-25T04:23:42;16.10;;;7.97;;
26052;SDS011;13826;51.186;4.450;2022-08-25T04:26:09;12.52;;;7.43;;
26052;SDS011;13826;51.186;4.450;2022-08-25T04:28:36;12.82;;;6.68;;
26052;SDS011;13826;51.186;4.450;2022-08-25T04:31:12;10.75;;;6.75;;
26052;SDS011;13826;51.186;4.450;2022-08-25T04:33:39;8.98;;;6.32;;
26052;SDS011;13826;51.186;4.450;2022-08-25T04:36:06;14.48;;;6.93;;
26052;SDS011;13826;51.186;4.450;2022-08-25T04:38:35;11.55;;;5.85;;
26052;SDS011;13826;51.186;4.450;2022-08-25T04:41:03;17.75;;;6.45;;
26052;SDS011;13826;51.186;4.450;2022-08-25T04:43:29;9.30;;;6.15;;
26052;SDS011;13826;51.186;4.450;2022-08-25T04:45:56;17.48;;;6.15;;
26052;SDS011;13826;51.186;4.450;2022-08-25T04:48:22;10.20;;;5.78;;
26052;SDS011;13826;51.186;4.450;2022-08-25T04:50:50;11.57;;;6.18;;
26052;SDS011;13826;51.186;4.450;2022-08-25T04:53:16;18.08;;;6.95;;
26052;SDS011;13826;51.186;4.450;2022-08-25T04:55:46;15.25;;;6.32;;
26052;SDS011;13826;51.186;4.450;2022-08-25T04:58:13;13.30;;;5.70;;
26052;SDS011;13826;51.186;4.450;2022-08-25T05:00:40;11.68;;;6.25;;
26052;SDS011;13826;51.186;4.450;2022-08-25T05:03:07;11.57;;;6.13;;
26052;SDS011;13826;51.186;4.450;2022-08-25T05:05:37;10.38;;;6.05;;
26052;SDS011;13826;51.186;4.450;2022-08-25T05:08:04;10.75;;;6.70;;
26052;SDS011;13826;51.186;4.450;2022-08-25T05:10:30;19.60;;;6.53;;
26052;SDS011;13826;51.186;4.450;2022-08-25T05:12:57;14.98;;;6.25;;
26052;SDS011;13826;51.186;4.450;2022-08-25T05:15:24;9.88;;;5.97;;
26052;SDS011;13826;51.186;4.450;2022-08-25T05:18:09;15.13;;;6.38;;
26052;SDS011;13826;51.186;4.450;2022-08-25T05:20:35;12.80;;;6.28;;
26052;SDS011;13826;51.186;4.450;2022-08-25T05:23:02;17.42;;;7.03;;
26052;SDS011;13826;51.186;4.450;2022-08-25T05:25:28;11.13;;;6.05;;
26052;SDS011;13826;51.186;4.450;2022-08-25T05:27:54;14.60;;;6.60;;
26052;SDS011;13826;51.186;4.450;2022-08-25T05:30:20;18.33;;;6.70;;
26052;SDS011;13826;51.186;4.450;2022-08-25T05:32:45;16.63;;;5.78;;
26052;SDS011;13826;51.186;4.450;2022-08-25T05:35:11;11.07;;;6.32;;
26052;SDS011;13826;51.186;4.450;2022-08-25T05:37:37;12.35;;;6.20;;
26052;SDS011;13826;51.186;4.450;2022-08-25T05:40:03;13.38;;;5.15;;
26052;SDS011;13826;51.186;4.450;2022-08-25T05:42:31;9.60;;;5.65;;
26052;SDS011;13826;51.186;4.450;2022-08-25T05:44:56;15.70;;;5.65;;
26052;SDS011;13826;51.186;4.450;2022-08-25T05:47:22;12.30;;;5.53;;
26052;SDS011;13826;51.186;4.450;2022-08-25T05:49:48;12.93;;;5.50;;
26052;SDS011;13826;51.186;4.450;2022-08-25T05:52:13;8.70;;;5.78;;
26052;SDS011;13826;51.186;4.450;2022-08-25T05:54:39;8.45;;;4.95;;
26052;SDS011;13826;51.186;4.450;2022-08-25T05:57:05;12.43;;;6.03;;
26052;SDS011;13826;51.186;4.450;2022-08-25T05:59:31;7.90;;;4.80;;
26052;SDS011;13826;51.186;4.450;2022-08-25T06:01:57;12.27;;;5.20;;
26052;SDS011;13826;51.186;4.450;2022-08-25T06:04:41;15.35;;;5.32;;
26052;SDS011;13826;51.186;4.450;2022-08-25T06:07:07;9.13;;;5.03;;
26052;SDS011;13826;51.186;4.450;2022-08-25T06:09:33;8.65;;;5.18;;
26052;SDS011;13826;51.186;4.450;2022-08-25T06:12:01;13.45;;;6.00;;
26052;SDS011;13826;51.186;4.450;2022-08-25T06:14:27;17.65;;;6.47;;
26052;SDS011;13826;51.186;4.450;2022-08-25T06:16:53;13.32;;;6.40;;
26052;SDS011;13826;51.186;4.450;2022-08-25T06:19:18;15.07;;;6.13;;
26052;SDS011;13826;51.186;4.450;2022-08-25T06:21:45;15.18;;;6.15;;
26052;SDS011;13826;51.186;4.450;2022-08-25T06:24:11;18.85;;;6.00;;
26052;SDS011;13826;51.186;4.450;2022-08-25T06:26:36;13.65;;;6.18;;
26052;SDS011;13826;51.186;4.450;2022-08-25T06:29:02;17.63;;;6.95;;
26052;SDS011;13826;51.186;4.450;2022-08-25T06:31:28;19.02;;;6.40;;
26052;SDS011;13826;51.186;4.450;2022-08-25T06:33:54;16.13;;;6.78;;
26052;SDS011;13826;51.186;4.450;2022-08-25T06:36:22;12.77;;;6.38;;
26052;SDS011;13826;51.186;4.450;2022-08-25T06:38:47;10.82;;;5.97;;
26052;SDS011;13826;51.186;4.450;2022-08-25T06:41:13;15.35;;;5.63;;
26052;SDS011;13826;51.186;4.450;2022-08-25T06:43:40;15.32;;;5.10;;
26052;SDS011;13826;51.186;4.450;2022-08-25T06:46:07;10.98;;;5.35;;
26052;SDS011;13826;51.186;4.450;2022-08-25T06:48:33;14.18;;;4.97;;
26052;SDS011;13826;51.186;4.450;2022-08-25T06:50:59;15.20;;;5.15;;
26052;SDS011;13826;51.186;4.450;2022-08-25T06:53:29;9.65;;;4.38;;
26052;SDS011;13826;51.186;4.450;2022-08-25T06:55:55;12.07;;;4.65;;
26052;SDS011;13826;51.186;4.450;2022-08-25T06:58:21;10.90;;;4.00;;
26052;SDS011;13826;51.186;4.450;2022-08-25T07:00:47;10.23;;;4.53;;
26052;SDS011;13826;51.186;4.450;2022-08-25T07:03:13;10.27;;;4.03;;
26052;SDS011;13826;51.186;4.450;2022-08-25T07:05:39;12.95;;;4.30;;
26052;SDS011;13826;51.186;4.450;2022-08-25T07:08:05;8.25;;;4.13;;
26052;SDS011;13826;51.186;4.450;2022-08-25T07:10:33;10.65;;;3.92;;
26052;SDS011;13826;51.186;4.450;2022-08-25T07:12:59;11.10;;;4.18;;
26052;SDS011;13826;51.186;4.450;2022-08-25T07:15:24;10.00;;;3.83;;
26052;SDS011;13826;51.186;4.450;2022-08-25T07:17:50;14.70;;;3.88;;
26052;SDS011;13826;51.186;4.450;2022-08-25T07:20:16;12.02;;;3.70;;
26052;SDS011;13826;51.186;4.450;2022-08-25T07:22:42;5.13;;;3.30;;
26052;SDS011;13826;51.186;4.450;2022-08-25T07:25:08;12.88;;;3.63;;
26052;SDS011;13826;51.186;4.450;2022-08-25T07:27:35;10.35;;;3.40;;
26052;SDS011;13826;51.186;4.450;2022-08-25T07:30:02;12.73;;;3.20;;
26052;SDS011;13826;51.186;4.450;2022-08-25T07:32:30;12.35;;;3.40;;
26052;SDS011;13826;51.186;4.450;2022-08-25T07:34:56;7.93;;;3.42;;
26052;SDS011;13826;51.186;4.450;2022-08-25T07:37:50;8.07;;;3.38;;
26052;SDS011;13826;51.186;4.450;2022-08-25T07:42:51;9.65;;;3.70;;
26052;SDS011;13826;51.186;4.450;2022-08-25T07:45:18;11.38;;;2.83;;
26052;SDS011;13826;51.186;4.450;2022-08-25T07:47:44;7.80;;;3.35;;
26052;SDS011;13826;51.186;4.450;2022-08-25T07:50:10;8.93;;;3.35;;
26052;SDS011;13826;51.186;4.450;2022-08-25T07:52:37;8.82;;;3.03;;
26052;SDS011;13826;51.186;4.450;2022-08-25T07:55:04;8.80;;;3.50;;
26052;SDS011;13826;51.186;4.450;2022-08-25T07:57:32;10.70;;;3.35;;
26052;SDS011;13826;51.186;4.450;2022-08-25T07:59:58;7.57;;;3.38;;
26052;SDS011;13826;51.186;4.450;2022-08-25T08:02:24;10.00;;;3.03;;
26052;SDS011;13826;51.186;4.450;2022-08-25T08:04:50;7.45;;;3.03;;
26052;SDS011;13826;51.186;4.450;2022-08-25T08:07:17;8.75;;;3.28;;
26052;SDS011;13826;51.186;4.450;2022-08-25T08:09:45;14.25;;;3.33;;
26052;SDS011;13826;51.186;4.450;2022-08-25T08:12:11;11.45;;;3.40;;
26052;SDS011;13826;51.186;4.450;2022-08-25T08:14:37;8.43;;;3.13;;
26052;SDS011;13826;51.186;4.450;2022-08-25T08:17:07;8.15;;;3.20;;
26052;SDS011;13826;51.186;4.450;2022-08-25T08:19:33;8.13;;;2.50;;
26052;SDS011;13826;51.186;4.450;2022-08-25T08:22:00;13.23;;;3.25;;
26052;SDS011;13826;51.186;4.450;2022-08-25T08:24:30;13.13;;;3.45;;
26052;SDS011;13826;51.186;4.450;2022-08-25T08:26:58;9.80;;;3.08;;
26052;SDS011;13826;51.186;4.450;2022-08-25T08:29:24;16.55;;;3.22;;
26052;SDS011;13826;51.186;4.450;2022-08-25T08:31:50;9.32;;;3.03;;
26052;SDS011;13826;51.186;4.450;2022-08-25T08:34:17;8.55;;;3.25;;
26052;SDS011;13826;51.186;4.450;2022-08-25T08:36:42;9.05;;;3.00;;
26052;SDS011;13826;51.186;4.450;2022-08-25T08:39:08;8.25;;;3.40;;
26052;SDS011;13826;51.186;4.450;2022-08-25T08:50:05;8.40;;;2.95;;
26052;SDS011;13826;51.186;4.450;2022-08-25T08:57:50;7.70;;;2.40;;
26052;SDS011;13826;51.186;4.450;2022-08-25T09:00:19;7.80;;;2.50;;
26052;SDS011;13826;51.186;4.450;2022-08-25T09:03:22;6.40;;;2.83;;
26052;SDS011;13826;51.186;4.450;2022-08-25T09:05:49;6.03;;;2.88;;
26052;SDS011;13826;51.186;4.450;2022-08-25T09:08:18;11.40;;;2.13;;
26052;SDS011;13826;51.186;4.450;2022-08-25T09:25:14;6.78;;;2.45;;
26052;SDS011;13826;51.186;4.450;2022-08-25T09:27:50;10.30;;;2.20;;
26052;SDS011;13826;51.186;4.450;2022-08-25T09:30:44;5.03;;;2.00;;
26052;SDS011;13826;51.186;4.450;2022-08-25T09:33:26;12.57;;;2.50;;
26052;SDS011;13826;51.186;4.450;2022-08-25T09:35:54;7.10;;;2.25;;
26052;SDS011;13826;51.186;4.450;2022-08-25T09:38:21;8.05;;;2.38;;
26052;SDS011;13826;51.186;4.450;2022-08-25T09:40:49;10.65;;;3.72;;
26052;SDS011;13826;51.186;4.450;2022-08-25T09:43:40;6.10;;;2.20;;
26052;SDS011;13826;51.186;4.450;2022-08-25T09:46:09;8.93;;;2.20;;
26052;SDS011;13826;51.186;4.450;2022-08-25T09:56:22;6.93;;;1.90;;
26052;SDS011;13826;51.186;4.450;2022-08-25T09:58:51;6.28;;;2.10;;
26052;SDS011;13826;51.186;4.450;2022-08-25T10:01:19;7.07;;;2.08;;
26052;SDS011;13826;51.186;4.450;2022-08-25T10:04:03;6.10;;;2.20;;
26052;SDS011;13826;51.186;4.450;2022-08-25T10:06:41;9.85;;;2.42;;
26052;SDS011;13826;51.186;4.450;2022-08-25T10:09:10;6.85;;;2.33;;
26052;SDS011;13826;51.186;4.450;2022-08-25T10:11:47;6.50;;;2.28;;
26052;SDS011;13826;51.186;4.450;2022-08-25T10:16:39;7.05;;;2.08;;
26052;SDS011;13826;51.186;4.450;2022-08-25T10:19:07;7.03;;;2.58;;
26052;SDS011;13826;51.186;4.450;2022-08-25T10:21:38;10.68;;;2.17;;
26052;SDS011;13826;51.186;4.450;2022-08-25T10:24:07;6.15;;;2.38;;
26052;SDS011;13826;51.186;4.450;2022-08-25T10:26:45;5.53;;;2.08;;
26052;SDS011;13826;51.186;4.450;2022-08-25T10:32:15;6.22;;;2.13;;
26052;SDS011;13826;51.186;4.450;2022-08-25T10:34:48;3.80;;;1.80;;
26052;SDS011;13826;51.186;4.450;2022-08-25T10:45:25;5.75;;;2.00;;
26052;SDS011;13826;51.186;4.450;2022-08-25T10:56:25;8.45;;;1.63;;
26052;SDS011;13826;51.186;4.450;2022-08-25T11:01:28;5.50;;;3.03;;
26052;SDS011;13826;51.186;4.450;2022-08-25T11:04:34;3.35;;;1.90;;
26052;SDS011;13826;51.186;4.450;2022-08-25T11:07:27;9.48;;;2.55;;
26052;SDS011;13826;51.186;4.450;2022-08-25T11:09:59;4.50;;;1.70;;
26052;SDS011;13826;51.186;4.450;2022-08-25T11:12:39;4.53;;;1.85;;
26052;SDS011;13826;51.186;4.450;2022-08-25T11:20:23;7.18;;;1.80;;
26052;SDS011;13826;51.186;4.450;2022-08-25T11:25:51;3.83;;;1.65;;
26052;SDS011;13826;51.186;4.450;2022-08-25T11:31:12;4.40;;;1.90;;
26052;SDS011;13826;51.186;4.450;2022-08-25T11:33:39;6.50;;;1.98;;
26052;SDS011;13826;51.186;4.450;2022-08-25T11:39:14;3.58;;;1.60;;
26052;SDS011;13826;51.186;4.450;2022-08-25T11:50:32;3.92;;;1.63;;
26052;SDS011;13826;51.186;4.450;2022-08-25T11:53:02;5.20;;;1.60;;
26052;SDS011;13826;51.186;4.450;2022-08-25T11:55:57;6.13;;;1.67;;
26052;SDS011;13826;51.186;4.450;2022-08-25T12:07:14;4.93;;;1.73;;
26052;SDS011;13826;51.186;4.450;2022-08-25T12:09:27;5.80;;;1.90;;
26052;SDS011;13826;51.186;4.450;2022-08-25T12:11:54;2.65;;;1.70;;
26052;SDS011;13826;51.186;4.450;2022-08-25T12:21:54;5.50;;;2.25;;
26052;SDS011;13826;51.186;4.450;2022-08-25T12:24:52;4.68;;;2.35;;
26052;SDS011;13826;51.186;4.450;2022-08-25T12:27:25;2.72;;;1.50;;
26052;SDS011;13826;51.186;4.450;2022-08-25T12:35:27;4.07;;;1.73;;
26052;SDS011;13826;51.186;4.450;2022-08-25T12:37:57;5.72;;;2.13;;
26052;SDS011;13826;51.186;4.450;2022-08-25T12:40:31;6.30;;;1.85;;
26052;SDS011;13826;51.186;4.450;2022-08-25T12:43:10;3.85;;;1.90;;
26052;SDS011;13826;51.186;4.450;2022-08-25T12:45:44;7.30;;;1.92;;
26052;SDS011;13826;51.186;4.450;2022-08-25T12:50:56;3.45;;;1.83;;
26052;SDS011;13826;51.186;4.450;2022-08-25T12:53:38;6.40;;;1.98;;
26052;SDS011;13826;51.186;4.450;2022-08-25T12:56:06;5.22;;;1.67;;
26052;SDS011;13826;51.186;4.450;2022-08-25T13:10:23;12.10;;;1.95;;
26052;SDS011;13826;51.186;4.450;2022-08-25T13:15:43;10.50;;;2.30;;
26052;SDS011;13826;51.186;4.450;2022-08-25T13:18:15;8.95;;;1.92;;
26052;SDS011;13826;51.186;4.450;2022-08-25T13:20:52;3.60;;;2.00;;
26052;SDS011;13826;51.186;4.450;2022-08-25T13:23:41;8.10;;;2.10;;
26052;SDS011;13826;51.186;4.450;2022-08-25T13:26:11;8.48;;;3.22;;
26052;SDS011;13826;51.186;4.450;2022-08-25T13:28:39;8.50;;;3.00;;
26052;SDS011;13826;51.186;4.450;2022-08-25T13:31:17;10.02;;;3.83;;
26052;SDS011;13826;51.186;4.450;2022-08-25T13:33:56;11.70;;;4.03;;
26052;SDS011;13826;51.186;4.450;2022-08-25T13:36:26;14.48;;;3.70;;
26052;SDS011;13826;51.186;4.450;2022-08-25T13:39:14;10.30;;;3.83;;
26052;SDS011;13826;51.186;4.450;2022-08-25T13:41:49;16.50;;;4.30;;
26052;SDS011;13826;51.186;4.450;2022-08-25T13:44:21;18.45;;;5.05;;
26052;SDS011;13826;51.186;4.450;2022-08-25T13:50:06;12.52;;;4.05;;
26052;SDS011;13826;51.186;4.450;2022-08-25T13:55:20;17.00;;;5.40;;
26052;SDS011;13826;51.186;4.450;2022-08-25T13:57:48;14.07;;;4.85;;
26052;SDS011;13826;51.186;4.450;2022-08-25T14:00:23;12.43;;;4.95;;
26052;SDS011;13826;51.186;4.450;2022-08-25T14:02:55;14.52;;;6.03;;
26052;SDS011;13826;51.186;4.450;2022-08-25T14:05:30;13.30;;;5.15;;
26052;SDS011;13826;51.186;4.450;2022-08-25T14:07:59;13.30;;;6.18;;
26052;SDS011;13826;51.186;4.450;2022-08-25T14:10:34;13.98;;;5.45;;
26052;SDS011;13826;51.186;4.450;2022-08-25T14:13:10;16.80;;;5.78;;
26052;SDS011;13826;51.186;4.450;2022-08-25T14:15:42;16.83;;;5.85;;
26052;SDS011;13826;51.186;4.450;2022-08-25T14:18:22;13.65;;;5.53;;
26052;SDS011;13826;51.186;4.450;2022-08-25T14:20:53;16.35;;;5.60;;
26052;SDS011;13826;51.186;4.450;2022-08-25T14:23:22;8.60;;;5.88;;
26052;SDS011;13826;51.186;4.450;2022-08-25T14:25:51;13.77;;;5.65;;
26052;SDS011;13826;51.186;4.450;2022-08-25T14:28:21;17.63;;;6.45;;
26052;SDS011;13826;51.186;4.450;2022-08-25T14:30:49;14.02;;;7.30;;
26052;SDS011;13826;51.186;4.450;2022-08-25T14:36:16;12.70;;;6.07;;
26052;SDS011;13826;51.186;4.450;2022-08-25T14:38:42;15.98;;;6.65;;
26052;SDS011;13826;51.186;4.450;2022-08-25T14:41:08;15.18;;;6.50;;
26052;SDS011;13826;51.186;4.450;2022-08-25T14:43:33;21.58;;;7.30;;
26052;SDS011;13826;51.186;4.450;2022-08-25T14:45:59;17.60;;;6.63;;
26052;SDS011;13826;51.186;4.450;2022-08-25T14:48:38;12.35;;;6.75;;
26052;SDS011;13826;51.186;4.450;2022-08-25T14:51:06;13.33;;;5.50;;
26052;SDS011;13826;51.186;4.450;2022-08-25T14:53:34;12.30;;;5.60;;
26052;SDS011;13826;51.186;4.450;2022-08-25T14:56:00;17.88;;;5.70;;
26052;SDS011;13826;51.186;4.450;2022-08-25T14:58:26;12.20;;;5.53;;
26052;SDS011;13826;51.186;4.450;2022-08-25T15:00:52;15.82;;;6.05;;
26052;SDS011;13826;51.186;4.450;2022-08-25T15:03:26;14.73;;;6.38;;
26052;SDS011;13826;51.186;4.450;2022-08-25T15:06:03;14.70;;;6.45;;
26052;SDS011;13826;51.186;4.450;2022-08-25T15:08:30;12.13;;;5.75;;
26052;SDS011;13826;51.186;4.450;2022-08-25T15:11:15;10.32;;;5.60;;
26052;SDS011;13826;51.186;4.450;2022-08-25T15:13:40;11.25;;;5.85;;
26052;SDS011;13826;51.186;4.450;2022-08-25T15:16:08;20.00;;;7.68;;
26052;SDS011;13826;51.186;4.450;2022-08-25T15:18:34;11.63;;;7.28;;
26052;SDS011;13826;51.186;4.450;2022-08-25T15:21:00;12.23;;;7.25;;
26052;SDS011;13826;51.186;4.450;2022-08-25T15:23:26;17.50;;;6.72;;
26052;SDS011;13826;51.186;4.450;2022-08-25T15:25:53;14.77;;;6.07;;
26052;SDS011;13826;51.186;4.450;2022-08-25T15:28:20;16.17;;;7.45;;
26052;SDS011;13826;51.186;4.450;2022-08-25T15:30:46;18.27;;;10.32;;
26052;SDS011;13826;51.186;4.450;2022-08-25T15:33:15;14.50;;;8.20;;
26052;SDS011;13826;51.186;4.450;2022-08-25T15:35:41;17.77;;;9.30;;
26052;SDS011;13826;51.186;4.450;2022-08-25T15:38:07;23.13;;;11.60;;
26052;SDS011;13826;51.186;4.450;2022-08-25T15:40:33;16.83;;;10.43;;
26052;SDS011;13826;51.186;4.450;2022-08-25T15:43:01;21.90;;;13.20;;
26052;SDS011;13826;51.186;4.450;2022-08-25T15:45:27;30.45;;;14.60;;
26052;SDS011;13826;51.186;4.450;2022-08-25T15:47:53;25.73;;;17.55;;
26052;SDS011;13826;51.186;4.450;2022-08-25T15:50:19;20.05;;;16.15;;
26052;SDS011;13826;51.186;4.450;2022-08-25T15:52:45;29.27;;;16.17;;
26052;SDS011;13826;51.186;4.450;2022-08-25T15:55:11;23.85;;;15.30;;
26052;SDS011;13826;51.186;4.450;2022-08-25T15:57:38;20.95;;;14.80;;
26052;SDS011;13826;51.186;4.450;2022-08-25T16:00:05;22.05;;;13.45;;
26052;SDS011;13826;51.186;4.450;2022-08-25T16:02:31;24.98;;;16.90;;
26052;SDS011;13826;51.186;4.450;2022-08-25T16:04:58;28.33;;;18.13;;
26052;SDS011;13826;51.186;4.450;2022-08-25T16:07:25;28.23;;;19.08;;
26052;SDS011;13826;51.186;4.450;2022-08-25T16:09:53;26.27;;;19.13;;
26052;SDS011;13826;51.186;4.450;2022-08-25T16:12:20;24.30;;;20.33;;
26052;SDS011;13826;51.186;4.450;2022-08-25T16:14:46;33.45;;;20.25;;
26052;SDS011;13826;51.186;4.450;2022-08-25T16:17:12;31.35;;;23.73;;
26052;SDS011;13826;51.186;4.450;2022-08-25T16:19:38;39.13;;;21.95;;
26052;SDS011;13826;51.186;4.450;2022-08-25T16:22:04;31.33;;;20.75;;
26052;SDS011;13826;51.186;4.450;2022-08-25T16:24:31;34.60;;;21.63;;
26052;SDS011;13826;51.186;4.450;2022-08-25T16:26:59;29.63;;;19.60;;
26052;SDS011;13826;51.186;4.450;2022-08-25T16:29:38;30.80;;;19.50;;
26052;SDS011;13826;51.186;4.450;2022-08-25T16:32:06;31.25;;;18.52;;
26052;SDS011;13826;51.186;4.450;2022-08-25T16:34:32;28.35;;;18.75;;
26052;SDS011;13826;51.186;4.450;2022-08-25T16:36:59;27.92;;;17.65;;
26052;SDS011;13826;51.186;4.450;2022-08-25T16:39:28;28.25;;;18.67;;
26052;SDS011;13826;51.186;4.450;2022-08-25T16:41:54;25.92;;;17.70;;
26052;SDS011;13826;51.186;4.450;2022-08-25T16:44:20;23.13;;;18.38;;
26052;SDS011;13826;51.186;4.450;2022-08-25T16:46:49;31.27;;;18.08;;
26052;SDS011;13826;51.186;4.450;2022-08-25T16:49:18;26.40;;;17.67;;
26052;SDS011;13826;51.186;4.450;2022-08-25T16:51:46;26.85;;;16.67;;
26052;SDS011;13826;51.186;4.450;2022-08-25T16:54:13;27.17;;;18.42;;
26052;SDS011;13826;51.186;4.450;2022-08-25T16:56:57;27.98;;;18.17;;
26052;SDS011;13826;51.186;4.450;2022-08-25T16:59:23;32.67;;;17.50;;
26052;SDS011;13826;51.186;4.450;2022-08-25T17:01:52;24.90;;;14.73;;
26052;SDS011;13826;51.186;4.450;2022-08-25T17:04:24;22.17;;;15.40;;